createdAt,value
2019-03-23T00:00:01.055Z,9.54
2019-03-23T00:00:40.064Z,9.54
2019-03-23T00:01:18.655Z,9.55
2019-03-23T00:01:54.808Z,9.54
2019-03-23T00:02:30.827Z,9.52
2019-03-23T00:03:07.143Z,9.54
2019-03-23T00:03:43.097Z,9.51
2019-03-23T00:04:19.419Z,9.51
2019-03-23T00:04:55.679Z,9.64
2019-03-23T00:05:31.739Z,9.81
2019-03-23T00:06:07.698Z,9.89
2019-03-23T00:06:43.659Z,9.95
2019-03-23T00:07:20.017Z,9.88
2019-03-23T00:07:55.998Z,9.82
2019-03-23T00:08:32.322Z,9.80
2019-03-23T00:09:08.781Z,9.83
2019-03-23T00:09:44.839Z,9.82
2019-03-23T00:10:20.927Z,9.78
2019-03-23T00:10:56.994Z,9.83
2019-03-23T00:11:33.063Z,9.88
2019-03-23T00:12:09.378Z,9.88
2019-03-23T00:12:45.482Z,9.93
2019-03-23T00:13:21.489Z,9.94
2019-03-23T00:13:57.942Z,9.85
2019-03-23T00:14:34.402Z,9.80
2019-03-23T00:15:11.002Z,9.81
2019-03-23T00:15:47.821Z,9.84
2019-03-23T00:16:24.295Z,9.75
2019-03-23T00:17:00.262Z,9.86
2019-03-23T00:17:36.256Z,9.82
2019-03-23T00:18:12.412Z,9.79
2019-03-23T00:18:48.780Z,9.75
2019-03-23T00:19:24.786Z,9.76
2019-03-23T00:20:00.774Z,9.79
2019-03-23T00:20:37.019Z,9.77
2019-03-23T00:21:13.054Z,9.70
2019-03-23T00:21:49.494Z,9.70
2019-03-23T00:22:25.692Z,9.68
2019-03-23T00:23:01.662Z,9.71
2019-03-23T00:23:37.742Z,9.79
2019-03-23T00:24:14.537Z,9.75
2019-03-23T00:24:50.649Z,9.68
2019-03-23T00:25:26.659Z,9.67
2019-03-23T00:26:02.664Z,9.62
2019-03-23T00:26:39.865Z,9.62
2019-03-23T00:27:15.870Z,9.62
2019-03-23T00:27:51.871Z,9.59
2019-03-23T00:28:27.864Z,9.59
2019-03-23T00:29:03.835Z,9.61
2019-03-23T00:29:40.623Z,9.64
2019-03-23T00:30:16.781Z,9.53
2019-03-23T00:30:53.766Z,9.53
2019-03-23T00:31:30.662Z,9.61
2019-03-23T00:32:06.875Z,9.55
2019-03-23T00:32:43.022Z,9.51
2019-03-23T00:33:19.112Z,9.49
2019-03-23T00:33:55.684Z,9.50
2019-03-23T00:34:31.643Z,9.52
2019-03-23T00:35:08.215Z,9.54
2019-03-23T00:35:44.169Z,9.61
2019-03-23T00:36:20.469Z,9.59
2019-03-23T00:36:56.853Z,9.61
2019-03-23T00:37:33.250Z,9.60
2019-03-23T00:38:09.315Z,9.53
2019-03-23T00:38:45.545Z,9.48
2019-03-23T00:39:21.833Z,9.50
2019-03-23T00:39:58.336Z,9.47
2019-03-23T00:40:34.400Z,9.42
2019-03-23T00:41:10.836Z,9.42
2019-03-23T00:41:46.832Z,9.47
2019-03-23T00:42:22.818Z,9.46
2019-03-23T00:42:58.968Z,9.45
2019-03-23T00:43:34.936Z,9.48
2019-03-23T00:44:10.901Z,9.43
2019-03-23T00:44:47.322Z,9.48
2019-03-23T00:45:24.120Z,9.49
2019-03-23T00:46:00.115Z,9.49
2019-03-23T00:46:36.495Z,9.51
2019-03-23T00:47:12.560Z,9.53
2019-03-23T00:47:48.548Z,9.52
2019-03-23T00:48:24.626Z,9.54
2019-03-23T00:49:00.995Z,9.53
2019-03-23T00:49:36.946Z,9.54
2019-03-23T00:50:13.502Z,9.50
2019-03-23T00:50:49.578Z,9.43
2019-03-23T00:51:25.569Z,9.48
2019-03-23T00:52:01.546Z,9.47
2019-03-23T00:52:37.625Z,9.51
2019-03-23T00:53:13.869Z,9.48
2019-03-23T00:53:49.963Z,9.46
2019-03-23T00:54:26.059Z,9.45
2019-03-23T00:55:02.728Z,9.44
2019-03-23T00:55:39.020Z,9.39
2019-03-23T00:56:16.572Z,9.29
2019-03-23T00:56:53.133Z,9.24
2019-03-23T00:57:29.279Z,9.24
2019-03-23T00:58:05.361Z,9.29
2019-03-23T00:58:41.337Z,9.26
2019-03-23T00:59:17.517Z,9.23
2019-03-23T00:59:54.017Z,9.20
2019-03-23T01:00:30.170Z,9.24
2019-03-23T01:01:06.155Z,9.23
2019-03-23T01:01:42.231Z,9.23
2019-03-23T01:02:18.301Z,9.23
2019-03-23T01:02:54.722Z,9.18
2019-03-23T01:03:30.749Z,9.18
2019-03-23T01:04:06.818Z,9.12
2019-03-23T01:04:42.891Z,9.19
2019-03-23T01:05:19.356Z,9.16
2019-03-23T01:05:55.378Z,9.14
2019-03-23T01:06:31.893Z,9.13
2019-03-23T01:07:07.866Z,9.16
2019-03-23T01:07:43.902Z,9.10
2019-03-23T01:08:19.878Z,9.14
2019-03-23T01:08:56.237Z,9.12
2019-03-23T01:09:32.248Z,9.12
2019-03-23T01:10:09.086Z,9.14
2019-03-23T01:10:45.063Z,9.09
2019-03-23T01:11:21.031Z,9.08
2019-03-23T01:11:57.100Z,9.17
2019-03-23T01:12:33.125Z,9.12
2019-03-23T01:13:09.498Z,9.14
2019-03-23T01:13:45.557Z,9.16
2019-03-23T01:14:21.589Z,9.12
2019-03-23T01:14:57.601Z,9.05
2019-03-23T01:15:33.551Z,9.01
2019-03-23T01:16:09.880Z,8.94
2019-03-23T01:16:45.895Z,8.94
2019-03-23T01:17:21.948Z,8.93
2019-03-23T01:17:58.032Z,9.01
2019-03-23T01:18:34.018Z,8.96
2019-03-23T01:19:10.100Z,9.00
2019-03-23T01:19:46.193Z,9.01
2019-03-23T01:20:22.281Z,8.98
2019-03-23T01:20:58.602Z,8.98
2019-03-23T01:21:34.667Z,9.07
2019-03-23T01:22:11.031Z,9.06
2019-03-23T01:22:47.053Z,9.12
2019-03-23T01:23:23.634Z,9.11
2019-03-23T01:24:00.165Z,9.10
2019-03-23T01:24:36.231Z,9.10
2019-03-23T01:25:12.833Z,9.14
2019-03-23T01:25:49.531Z,9.16
2019-03-23T01:26:25.823Z,9.22
2019-03-23T01:27:01.830Z,9.17
2019-03-23T01:27:37.918Z,9.16
2019-03-23T01:28:14.006Z,9.13
2019-03-23T01:28:50.025Z,9.11
2019-03-23T01:29:26.077Z,9.06
2019-03-23T01:30:02.436Z,9.06
2019-03-23T01:30:38.416Z,9.05
2019-03-23T01:31:14.631Z,9.07
2019-03-23T01:31:50.878Z,9.05
2019-03-23T01:32:27.078Z,9.08
2019-03-23T01:33:03.459Z,9.08
2019-03-23T01:33:40.010Z,9.04
2019-03-23T01:34:16.311Z,9.02
2019-03-23T01:34:52.323Z,8.96
2019-03-23T01:35:28.359Z,8.99
2019-03-23T01:36:04.473Z,8.94
2019-03-23T01:36:40.437Z,8.90
2019-03-23T01:37:16.395Z,8.96
2019-03-23T01:37:52.434Z,8.96
2019-03-23T01:38:29.266Z,8.94
2019-03-23T01:39:07.091Z,8.94
2019-03-23T01:39:43.396Z,8.97
2019-03-23T01:40:19.371Z,8.98
2019-03-23T01:40:55.393Z,8.97
2019-03-23T01:41:31.376Z,8.95
2019-03-23T01:42:07.371Z,8.94
2019-03-23T01:42:43.439Z,8.94
2019-03-23T01:43:19.471Z,8.93
2019-03-23T01:43:55.568Z,8.89
2019-03-23T01:44:31.780Z,8.91
2019-03-23T01:45:08.644Z,8.91
2019-03-23T01:45:44.829Z,8.87
2019-03-23T01:46:20.931Z,8.85
2019-03-23T01:46:57.125Z,8.90
2019-03-23T01:47:33.516Z,8.88
2019-03-23T01:48:09.878Z,8.88
2019-03-23T01:48:45.842Z,8.80
2019-03-23T01:49:21.949Z,8.77
2019-03-23T01:49:57.945Z,8.77
2019-03-23T01:50:33.954Z,8.84
2019-03-23T01:51:09.926Z,8.84
2019-03-23T01:51:46.253Z,8.83
2019-03-23T01:52:22.574Z,8.82
2019-03-23T01:52:58.944Z,8.82
2019-03-23T01:53:34.911Z,8.82
2019-03-23T01:54:10.873Z,8.82
2019-03-23T01:54:46.840Z,8.78
2019-03-23T01:55:22.866Z,8.76
2019-03-23T01:55:59.020Z,8.77
2019-03-23T01:56:35.100Z,8.78
2019-03-23T01:57:11.085Z,8.73
2019-03-23T01:57:47.067Z,8.68
2019-03-23T01:58:23.162Z,8.66
2019-03-23T01:58:59.523Z,8.67
2019-03-23T01:59:35.587Z,8.72
2019-03-23T02:00:11.945Z,8.72
2019-03-23T02:00:47.922Z,8.72
2019-03-23T02:01:24.105Z,8.70
2019-03-23T02:02:00.566Z,8.72
2019-03-23T02:02:36.833Z,8.74
2019-03-23T02:03:13.266Z,8.71
2019-03-23T02:03:50.054Z,8.73
2019-03-23T02:04:26.522Z,8.67
2019-03-23T02:05:02.511Z,8.72
2019-03-23T02:05:38.612Z,8.70
2019-03-23T02:06:14.573Z,8.68
2019-03-23T02:06:51.483Z,8.71
2019-03-23T02:07:27.878Z,8.76
2019-03-23T02:08:03.858Z,8.74
2019-03-23T02:08:39.879Z,8.68
2019-03-23T02:09:15.829Z,8.63
2019-03-23T02:09:51.833Z,8.62
2019-03-23T02:10:27.866Z,8.64
2019-03-23T02:11:04.693Z,8.61
2019-03-23T02:11:41.471Z,8.60
2019-03-23T02:12:17.449Z,8.52
2019-03-23T02:12:53.574Z,8.53
2019-03-23T02:13:29.597Z,8.54
2019-03-23T02:14:05.663Z,8.60
2019-03-23T02:14:41.639Z,8.68
2019-03-23T02:15:17.898Z,8.67
2019-03-23T02:15:54.023Z,8.65
2019-03-23T02:16:30.026Z,8.69
2019-03-23T02:17:05.992Z,8.69
2019-03-23T02:17:42.261Z,8.71
2019-03-23T02:18:18.311Z,8.70
2019-03-23T02:18:54.397Z,8.74
2019-03-23T02:19:30.430Z,8.74
2019-03-23T02:20:07.852Z,8.69
2019-03-23T02:20:43.854Z,8.67
2019-03-23T02:21:20.279Z,8.65
2019-03-23T02:21:57.192Z,8.64
2019-03-23T02:22:33.619Z,8.61
2019-03-23T02:23:09.642Z,8.68
2019-03-23T02:23:45.973Z,8.69
2019-03-23T02:24:22.013Z,8.69
2019-03-23T02:24:58.359Z,8.68
2019-03-23T02:25:34.483Z,8.66
2019-03-23T02:26:10.457Z,8.70
2019-03-23T02:26:46.448Z,8.67
2019-03-23T02:27:22.575Z,8.68
2019-03-23T02:27:59.079Z,8.64
2019-03-23T02:28:35.447Z,8.61
2019-03-23T02:29:11.430Z,8.56
2019-03-23T02:29:47.798Z,8.64
2019-03-23T02:30:23.800Z,8.64
2019-03-23T02:31:00.761Z,8.62
2019-03-23T02:31:36.776Z,8.63
2019-03-23T02:32:12.914Z,8.63
2019-03-23T02:32:48.903Z,8.58
2019-03-23T02:33:25.242Z,8.56
2019-03-23T02:34:01.372Z,8.57
2019-03-23T02:34:37.757Z,8.54
2019-03-23T02:35:13.941Z,8.53
2019-03-23T02:35:49.926Z,8.70
2019-03-23T02:36:26.173Z,8.69
2019-03-23T02:37:02.232Z,8.63
2019-03-23T02:37:38.217Z,8.55
2019-03-23T02:38:14.193Z,8.51
2019-03-23T02:38:50.581Z,8.43
2019-03-23T02:39:26.633Z,8.45
2019-03-23T02:40:02.646Z,8.47
2019-03-23T02:40:38.794Z,8.48
2019-03-23T02:41:14.873Z,8.56
2019-03-23T02:41:51.010Z,8.47
2019-03-23T02:42:27.497Z,8.47
2019-03-23T02:43:03.817Z,8.42
2019-03-23T02:43:39.948Z,8.44
2019-03-23T02:44:15.907Z,8.39
2019-03-23T02:44:52.450Z,8.35
2019-03-23T02:45:30.382Z,8.35
2019-03-23T02:46:06.217Z,8.29
2019-03-23T02:46:42.977Z,8.36
2019-03-23T02:47:19.639Z,8.34
2019-03-23T02:47:55.642Z,8.31
2019-03-23T02:48:32.130Z,8.39
2019-03-23T02:49:08.554Z,8.31
2019-03-23T02:49:44.525Z,8.26
2019-03-23T02:50:20.817Z,8.26
2019-03-23T02:50:56.953Z,8.28
2019-03-23T02:51:32.945Z,8.22
2019-03-23T02:52:08.956Z,8.09
2019-03-23T02:52:44.919Z,8.09
2019-03-23T02:53:21.280Z,8.10
2019-03-23T02:53:57.285Z,8.08
2019-03-23T02:54:33.365Z,8.02
2019-03-23T02:55:09.975Z,7.97
2019-03-23T02:55:45.941Z,8.01
2019-03-23T02:56:22.253Z,7.94
2019-03-23T02:56:58.360Z,7.94
2019-03-23T02:57:34.601Z,7.90
2019-03-23T02:58:10.585Z,7.90
2019-03-23T02:58:46.580Z,7.84
2019-03-23T02:59:22.580Z,7.84
2019-03-23T02:59:58.639Z,7.84
2019-03-23T03:00:35.003Z,7.91
2019-03-23T03:01:11.306Z,7.73
2019-03-23T03:01:47.385Z,7.87
2019-03-23T03:02:23.414Z,7.82
2019-03-23T03:02:59.500Z,7.72
2019-03-23T03:03:36.230Z,7.72
2019-03-23T03:04:12.218Z,7.66
2019-03-23T03:04:48.226Z,7.66
2019-03-23T03:05:24.616Z,7.68
2019-03-23T03:06:00.741Z,7.69
2019-03-23T03:06:36.711Z,7.65
2019-03-23T03:07:12.706Z,7.70
2019-03-23T03:07:48.793Z,7.78
2019-03-23T03:08:25.008Z,7.78
2019-03-23T03:09:01.226Z,7.62
2019-03-23T03:09:37.862Z,7.56
2019-03-23T03:10:17.173Z,7.46
2019-03-23T03:10:53.532Z,7.50
2019-03-23T03:11:29.503Z,7.51
2019-03-23T03:12:05.481Z,7.50
2019-03-23T03:12:41.452Z,7.43
2019-03-23T03:13:17.741Z,7.43
2019-03-23T03:13:54.188Z,7.48
2019-03-23T03:14:30.170Z,7.57
2019-03-23T03:15:06.804Z,7.57
2019-03-23T03:15:42.789Z,7.59
2019-03-23T03:16:18.788Z,7.59
2019-03-23T03:16:54.776Z,7.50
2019-03-23T03:17:30.842Z,7.50
2019-03-23T03:18:07.840Z,7.47
2019-03-23T03:18:44.714Z,7.44
2019-03-23T03:19:21.072Z,7.44
2019-03-23T03:19:57.418Z,7.48
2019-03-23T03:20:33.762Z,7.48
2019-03-23T03:21:09.759Z,7.48
2019-03-23T03:21:46.055Z,7.42
2019-03-23T03:22:22.436Z,7.42
2019-03-23T03:22:58.886Z,7.41
2019-03-23T03:23:34.957Z,7.38
2019-03-23T03:24:10.922Z,7.42
2019-03-23T03:24:47.334Z,7.42
2019-03-23T03:25:23.404Z,7.39
2019-03-23T03:25:59.454Z,7.39
2019-03-23T03:26:36.087Z,7.34
2019-03-23T03:27:12.157Z,7.29
2019-03-23T03:27:48.096Z,7.28
2019-03-23T03:28:24.776Z,7.28
2019-03-23T03:29:00.905Z,7.27
2019-03-23T03:29:37.244Z,7.27
2019-03-23T03:30:13.840Z,7.40
2019-03-23T03:30:49.829Z,7.40
2019-03-23T03:31:25.945Z,7.40
2019-03-23T03:32:02.395Z,7.40
2019-03-23T03:32:38.364Z,7.43
2019-03-23T03:33:14.433Z,7.38
2019-03-23T03:33:50.933Z,7.36
2019-03-23T03:34:26.962Z,7.36
2019-03-23T03:35:03.143Z,7.33
2019-03-23T03:35:39.463Z,7.39
2019-03-23T03:36:15.473Z,7.39
2019-03-23T03:36:51.440Z,7.47
2019-03-23T03:37:27.452Z,7.51
2019-03-23T03:38:03.415Z,7.51
2019-03-23T03:38:39.380Z,7.50
2019-03-23T03:39:15.817Z,7.48
2019-03-23T03:39:51.805Z,7.50
2019-03-23T03:40:27.937Z,7.51
2019-03-23T03:41:04.167Z,7.45
2019-03-23T03:41:40.472Z,7.45
2019-03-23T03:42:16.454Z,7.65
2019-03-23T03:42:53.198Z,7.59
2019-03-23T03:43:29.265Z,7.55
2019-03-23T03:44:05.403Z,7.50
2019-03-23T03:44:41.715Z,7.52
2019-03-23T03:45:24.182Z,7.52
2019-03-23T03:46:00.247Z,7.60
2019-03-23T03:46:36.207Z,7.59
2019-03-23T03:47:12.714Z,7.57
2019-03-23T03:47:48.698Z,7.57
2019-03-23T03:48:25.210Z,7.67
2019-03-23T03:49:12.457Z,7.63
2019-03-23T03:49:39.321Z,7.60
2019-03-23T03:50:15.479Z,7.57
2019-03-23T03:50:51.455Z,7.57
2019-03-23T03:51:27.577Z,7.54
2019-03-23T03:52:03.578Z,7.60
2019-03-23T03:52:39.546Z,7.59
2019-03-23T03:53:15.632Z,7.55
2019-03-23T03:53:51.982Z,7.63
2019-03-23T03:54:28.432Z,7.63
2019-03-23T03:55:04.517Z,7.64
2019-03-23T03:55:40.483Z,7.57
2019-03-23T03:56:16.449Z,7.57
2019-03-23T03:56:53.938Z,7.62
2019-03-23T03:57:30.458Z,7.55
2019-03-23T03:58:06.431Z,7.57
2019-03-23T03:58:42.504Z,7.49
2019-03-23T03:59:18.927Z,7.55
2019-03-23T03:59:55.291Z,7.55
2019-03-23T04:00:31.837Z,7.63
2019-03-23T04:01:07.816Z,7.64
2019-03-23T04:01:44.206Z,7.65
2019-03-23T04:02:20.202Z,7.65
2019-03-23T04:02:56.318Z,7.65
2019-03-23T04:03:32.631Z,7.61
2019-03-23T04:04:08.627Z,7.61
2019-03-23T04:04:44.603Z,7.61
2019-03-23T04:05:20.611Z,7.60
2019-03-23T04:05:57.015Z,7.61
2019-03-23T04:06:33.696Z,7.61
2019-03-23T04:07:10.687Z,7.61
2019-03-23T04:07:46.707Z,7.61
2019-03-23T04:08:22.798Z,7.57
2019-03-23T04:08:58.989Z,7.57
2019-03-23T04:09:34.976Z,7.56
2019-03-23T04:10:11.406Z,7.53
2019-03-23T04:10:47.533Z,7.53
2019-03-23T04:11:23.725Z,7.60
2019-03-23T04:11:59.878Z,7.48
2019-03-23T04:12:36.683Z,7.53
2019-03-23T04:13:12.666Z,7.46
2019-03-23T04:13:49.050Z,7.46
2019-03-23T04:14:25.473Z,7.44
2019-03-23T04:15:02.426Z,7.46
2019-03-23T04:15:38.402Z,7.53
2019-03-23T04:16:14.803Z,7.45
2019-03-23T04:16:50.896Z,7.40
2019-03-23T04:17:27.407Z,7.31
2019-03-23T04:18:03.768Z,7.34
2019-03-23T04:18:39.744Z,7.34
2019-03-23T04:19:15.744Z,7.32
2019-03-23T04:19:51.787Z,7.37
2019-03-23T04:20:27.830Z,7.38
2019-03-23T04:21:03.912Z,7.36
2019-03-23T04:21:39.870Z,7.39
2019-03-23T04:22:16.296Z,7.46
2019-03-23T04:22:52.397Z,7.45
2019-03-23T04:23:28.397Z,7.45
2019-03-23T04:24:04.739Z,7.39
2019-03-23T04:24:40.722Z,7.39
2019-03-23T04:25:17.152Z,7.34
2019-03-23T04:25:53.707Z,7.33
2019-03-23T04:26:29.730Z,7.38
2019-03-23T04:27:05.996Z,7.38
2019-03-23T04:27:42.282Z,7.33
2019-03-23T04:28:18.824Z,7.28
2019-03-23T04:28:55.365Z,7.28
2019-03-23T04:29:31.378Z,7.28
2019-03-23T04:30:08.270Z,7.37
2019-03-23T04:30:44.258Z,7.37
2019-03-23T04:31:20.257Z,7.36
2019-03-23T04:31:56.301Z,7.26
2019-03-23T04:32:32.341Z,7.18
2019-03-23T04:33:08.622Z,7.09
2019-03-23T04:33:44.695Z,7.19
2019-03-23T04:34:20.866Z,7.19
2019-03-23T04:34:57.790Z,7.14
2019-03-23T04:35:33.781Z,7.37
2019-03-23T04:36:09.764Z,7.36
2019-03-23T04:36:46.302Z,7.35
2019-03-23T04:37:22.307Z,7.25
2019-03-23T04:37:58.523Z,7.28
2019-03-23T04:38:34.501Z,7.28
2019-03-23T04:39:10.477Z,7.19
2019-03-23T04:39:47.002Z,7.23
2019-03-23T04:40:23.189Z,7.23
2019-03-23T04:40:59.660Z,7.13
2019-03-23T04:41:36.026Z,7.12
2019-03-23T04:42:12.001Z,7.09
2019-03-23T04:42:48.092Z,7.19
2019-03-23T04:43:24.458Z,7.12
2019-03-23T04:44:00.481Z,7.12
2019-03-23T04:44:36.453Z,6.99
2019-03-23T04:45:12.814Z,6.95
2019-03-23T04:45:48.864Z,6.93
2019-03-23T04:46:24.879Z,6.95
2019-03-23T04:47:01.265Z,6.91
2019-03-23T04:47:37.242Z,6.91
2019-03-23T04:48:13.242Z,7.03
2019-03-23T04:48:49.632Z,7.03
2019-03-23T04:49:25.618Z,7.05
2019-03-23T04:50:01.961Z,7.05
2019-03-23T04:50:37.934Z,7.05
2019-03-23T04:51:13.927Z,6.92
2019-03-23T04:51:50.218Z,6.94
2019-03-23T04:52:26.233Z,6.90
2019-03-23T04:53:02.672Z,6.89
2019-03-23T04:53:38.639Z,6.89
2019-03-23T04:54:14.623Z,6.79
2019-03-23T04:54:51.025Z,6.79
2019-03-23T04:55:27.133Z,6.86
2019-03-23T04:56:03.120Z,6.86
2019-03-23T04:56:39.089Z,6.93
2019-03-23T04:57:15.305Z,6.93
2019-03-23T04:57:51.278Z,6.91
2019-03-23T04:58:27.268Z,6.84
2019-03-23T04:59:03.264Z,6.85
2019-03-23T04:59:39.279Z,6.89
2019-03-23T05:00:16.249Z,6.89
2019-03-23T05:00:52.620Z,6.83
2019-03-23T05:01:28.736Z,6.73
2019-03-23T05:02:05.167Z,6.79
2019-03-23T05:02:41.162Z,6.83
2019-03-23T05:03:17.145Z,6.79
2019-03-23T05:03:53.552Z,6.79
2019-03-23T05:04:30.220Z,6.76
2019-03-23T05:05:06.617Z,6.67
2019-03-23T05:05:42.696Z,6.67
2019-03-23T05:06:18.653Z,6.70
2019-03-23T05:06:54.652Z,6.77
2019-03-23T05:07:30.641Z,6.77
2019-03-23T05:08:06.613Z,6.77
2019-03-23T05:08:42.582Z,6.72
2019-03-23T05:09:18.589Z,6.62
2019-03-23T05:09:54.596Z,6.63
2019-03-23T05:10:30.685Z,6.62
2019-03-23T05:11:06.853Z,6.61
2019-03-23T05:11:42.836Z,6.62
2019-03-23T05:12:18.825Z,6.62
2019-03-23T05:12:55.060Z,6.63
2019-03-23T05:13:31.164Z,6.57
2019-03-23T05:14:07.148Z,6.58
2019-03-23T05:14:43.157Z,6.63
2019-03-23T05:15:19.134Z,6.65
2019-03-23T05:15:55.254Z,6.61
2019-03-23T05:16:31.916Z,6.61
2019-03-23T05:17:07.968Z,6.59
2019-03-23T05:17:43.936Z,6.59
2019-03-23T05:18:20.129Z,6.62
2019-03-23T05:18:56.134Z,6.58
2019-03-23T05:19:32.190Z,6.62
2019-03-23T05:20:08.875Z,6.62
2019-03-23T05:20:44.860Z,6.70
2019-03-23T05:21:21.071Z,6.68
2019-03-23T05:21:57.220Z,6.68
2019-03-23T05:22:33.298Z,6.58
2019-03-23T05:23:09.268Z,6.58
2019-03-23T05:23:45.921Z,6.65
2019-03-23T05:24:23.422Z,6.60
2019-03-23T05:24:59.542Z,6.56
2019-03-23T05:25:35.978Z,6.66
2019-03-23T05:26:11.942Z,6.66
2019-03-23T05:26:48.764Z,6.61
2019-03-23T05:27:25.273Z,6.60
2019-03-23T05:28:01.404Z,6.56
2019-03-23T05:28:37.794Z,6.56
2019-03-23T05:29:13.822Z,6.56
2019-03-23T05:29:50.148Z,6.59
2019-03-23T05:30:26.399Z,6.59
2019-03-23T05:31:02.804Z,6.49
2019-03-23T05:31:38.860Z,6.49
2019-03-23T05:32:14.843Z,6.49
2019-03-23T05:32:50.871Z,6.50
2019-03-23T05:33:26.832Z,6.50
2019-03-23T05:34:02.918Z,6.50
2019-03-23T05:34:39.318Z,6.50
2019-03-23T05:35:15.284Z,6.45
2019-03-23T05:35:51.406Z,6.45
2019-03-23T05:36:27.730Z,6.43
2019-03-23T05:37:03.719Z,6.46
2019-03-23T05:37:39.685Z,6.48
2019-03-23T05:38:16.032Z,6.47
2019-03-23T05:38:52.057Z,6.47
2019-03-23T05:39:28.528Z,6.44
2019-03-23T05:40:04.891Z,6.40
2019-03-23T05:41:15.167Z,6.45
2019-03-23T05:41:51.247Z,6.53
2019-03-23T05:42:27.274Z,6.49
2019-03-23T05:43:03.247Z,6.49
2019-03-23T05:43:39.210Z,6.57
2019-03-23T05:44:15.612Z,6.52
2019-03-23T05:44:51.625Z,6.57
2019-03-23T05:45:27.706Z,6.48
2019-03-23T05:46:03.774Z,6.51
2019-03-23T05:46:39.743Z,6.54
2019-03-23T05:47:15.705Z,6.61
2019-03-23T05:47:51.736Z,6.57
2019-03-23T05:48:27.860Z,6.58
2019-03-23T05:49:04.147Z,6.56
2019-03-23T05:49:40.710Z,6.53
2019-03-23T05:50:17.070Z,6.52
2019-03-23T05:50:53.123Z,6.56
2019-03-23T05:51:29.578Z,6.54
2019-03-23T05:52:05.644Z,6.46
2019-03-23T05:52:41.605Z,6.48
2019-03-23T05:53:17.697Z,6.47
2019-03-23T05:53:54.554Z,6.54
2019-03-23T05:54:30.554Z,6.56
2019-03-23T05:55:06.922Z,6.48
2019-03-23T05:55:42.917Z,6.49
2019-03-23T05:56:18.897Z,6.57
2019-03-23T05:56:54.888Z,6.61
2019-03-23T05:57:30.860Z,6.54
2019-03-23T05:58:06.842Z,6.54
2019-03-23T05:58:42.810Z,6.58
2019-03-23T05:59:18.873Z,6.53
2019-03-23T05:59:54.910Z,6.46
2019-03-23T06:00:31.421Z,6.46
2019-03-23T06:01:07.403Z,6.45
2019-03-23T06:01:43.384Z,6.51
2019-03-23T06:02:20.489Z,6.50
2019-03-23T06:02:56.488Z,6.52
2019-03-23T06:03:32.465Z,6.48
2019-03-23T06:04:08.546Z,6.62
2019-03-23T06:04:44.527Z,6.66
2019-03-23T06:05:20.868Z,6.76
2019-03-23T06:05:56.971Z,6.76
2019-03-23T06:06:33.036Z,6.73
2019-03-23T06:07:09.009Z,6.84
2019-03-23T06:07:45.169Z,6.84
2019-03-23T06:08:21.255Z,6.77
2019-03-23T06:08:57.236Z,6.72
2019-03-23T06:09:33.220Z,6.72
2019-03-23T06:10:10.009Z,6.72
2019-03-23T06:10:46.010Z,6.72
2019-03-23T06:11:22.021Z,6.72
2019-03-23T06:11:58.484Z,6.75
2019-03-23T06:12:34.451Z,6.81
2019-03-23T06:13:10.410Z,6.78
2019-03-23T06:13:46.494Z,6.83
2019-03-23T06:14:22.657Z,6.83
2019-03-23T06:14:58.675Z,6.78
2019-03-23T06:15:34.639Z,6.86
2019-03-23T06:16:10.690Z,6.92
2019-03-23T06:16:46.659Z,6.95
2019-03-23T06:17:22.677Z,6.95
2019-03-23T06:17:58.695Z,6.95
2019-03-23T06:18:34.761Z,6.94
2019-03-23T06:19:10.721Z,6.94
2019-03-23T06:19:47.056Z,6.97
2019-03-23T06:20:23.205Z,6.87
2019-03-23T06:20:59.185Z,6.74
2019-03-23T06:21:35.272Z,6.85
2019-03-23T06:22:11.339Z,6.85
2019-03-23T06:22:47.405Z,6.79
2019-03-23T06:23:23.738Z,6.79
2019-03-23T06:24:00.115Z,6.74
2019-03-23T06:24:36.099Z,6.88
2019-03-23T06:25:12.282Z,6.83
2019-03-23T06:25:48.255Z,6.83
2019-03-23T06:26:24.708Z,6.94
2019-03-23T06:27:01.215Z,6.94
2019-03-23T06:27:37.713Z,6.91
2019-03-23T06:28:13.770Z,6.91
2019-03-23T06:28:49.753Z,6.95
2019-03-23T06:29:25.751Z,6.95
2019-03-23T06:30:01.778Z,7.00
2019-03-23T06:30:38.133Z,7.09
2019-03-23T06:31:14.449Z,7.09
2019-03-23T06:31:50.443Z,7.05
2019-03-23T06:32:26.933Z,7.10
2019-03-23T06:33:02.985Z,7.10
2019-03-23T06:33:39.248Z,7.13
2019-03-23T06:34:15.231Z,7.11
2019-03-23T06:34:51.414Z,7.11
2019-03-23T06:35:27.427Z,7.04
2019-03-23T06:36:03.443Z,7.04
2019-03-23T06:36:39.406Z,7.12
2019-03-23T06:37:15.736Z,7.06
2019-03-23T06:37:52.261Z,7.06
2019-03-23T06:38:28.731Z,7.10
2019-03-23T06:39:06.196Z,7.09
2019-03-23T06:39:42.178Z,6.96
2019-03-23T06:40:18.490Z,6.96
2019-03-23T06:40:54.856Z,6.99
2019-03-23T06:41:30.926Z,6.88
2019-03-23T06:42:07.001Z,6.94
2019-03-23T06:42:43.287Z,6.95
2019-03-23T06:43:19.252Z,7.03
2019-03-23T06:43:55.476Z,6.95
2019-03-23T06:44:31.698Z,6.95
2019-03-23T06:45:08.963Z,6.93
2019-03-23T06:45:45.366Z,6.98
2019-03-23T06:46:21.400Z,6.98
2019-03-23T06:46:57.405Z,6.98
2019-03-23T06:47:33.375Z,7.03
2019-03-23T06:48:09.330Z,7.03
2019-03-23T06:48:45.320Z,7.07
2019-03-23T06:49:21.368Z,7.14
2019-03-23T06:49:57.394Z,7.15
2019-03-23T06:50:33.356Z,7.22
2019-03-23T06:51:09.328Z,7.19
2019-03-23T06:51:45.300Z,7.19
2019-03-23T06:52:21.375Z,7.22
2019-03-23T06:52:57.363Z,7.28
2019-03-23T06:53:33.884Z,7.24
2019-03-23T06:54:09.850Z,7.24
2019-03-23T06:54:45.852Z,7.25
2019-03-23T06:55:21.886Z,7.34
2019-03-23T06:55:57.881Z,7.34
2019-03-23T06:56:33.908Z,7.19
2019-03-23T06:57:09.886Z,7.20
2019-03-23T06:57:45.950Z,7.20
2019-03-23T06:58:22.129Z,7.27
2019-03-23T06:58:59.431Z,7.27
2019-03-23T06:59:35.455Z,7.31
2019-03-23T07:00:13.383Z,7.29
2019-03-23T07:00:49.822Z,7.30
2019-03-23T07:01:26.213Z,7.30
2019-03-23T07:02:02.198Z,7.58
2019-03-23T07:02:38.196Z,7.58
2019-03-23T07:03:14.531Z,7.61
2019-03-23T07:03:50.847Z,7.55
2019-03-23T07:04:27.010Z,7.52
2019-03-23T07:05:02.963Z,7.52
2019-03-23T07:05:39.131Z,7.54
2019-03-23T07:06:15.366Z,7.54
2019-03-23T07:06:51.377Z,7.48
2019-03-23T07:07:27.378Z,7.59
2019-03-23T07:08:03.382Z,7.59
2019-03-23T07:08:39.361Z,7.60
2019-03-23T07:09:16.638Z,7.87
2019-03-23T07:09:52.782Z,7.87
2019-03-23T07:10:28.766Z,7.87
2019-03-23T07:11:04.759Z,7.79
2019-03-23T07:11:40.826Z,7.79
2019-03-23T07:12:16.893Z,7.78
2019-03-23T07:12:52.906Z,7.78
2019-03-23T07:13:29.129Z,7.91
2019-03-23T07:14:05.735Z,7.91
2019-03-23T07:14:41.684Z,7.96
2019-03-23T07:15:20.259Z,7.92
2019-03-23T07:15:56.652Z,8.09
2019-03-23T07:16:32.623Z,8.02
2019-03-23T07:17:08.589Z,7.98
2019-03-23T07:17:44.555Z,7.98
2019-03-23T07:18:21.012Z,8.04
2019-03-23T07:18:57.112Z,8.03
2019-03-23T07:19:33.071Z,8.02
2019-03-23T07:20:10.846Z,8.09
2019-03-23T07:20:46.786Z,8.09
2019-03-23T07:21:22.790Z,8.15
2019-03-23T07:21:58.768Z,8.15
2019-03-23T07:22:35.159Z,8.14
2019-03-23T07:23:11.150Z,8.19
2019-03-23T07:23:47.207Z,8.19
2019-03-23T07:24:23.743Z,8.30
2019-03-23T07:24:59.758Z,8.30
2019-03-23T07:25:36.073Z,8.31
2019-03-23T07:26:12.351Z,8.34
2019-03-23T07:26:48.325Z,8.31
2019-03-23T07:27:24.308Z,8.53
2019-03-23T07:28:00.276Z,8.64
2019-03-23T07:28:36.260Z,8.54
2019-03-23T07:29:12.569Z,8.54
2019-03-23T07:29:48.583Z,8.55
2019-03-23T07:30:24.671Z,8.58
2019-03-23T07:31:00.667Z,8.54
2019-03-23T07:31:36.653Z,8.59
2019-03-23T07:32:12.630Z,8.58
2019-03-23T07:32:48.621Z,8.59
2019-03-23T07:33:24.625Z,8.59
2019-03-23T07:34:00.611Z,8.71
2019-03-23T07:34:37.046Z,8.81
2019-03-23T07:35:13.250Z,8.81
2019-03-23T07:35:49.246Z,8.82
2019-03-23T07:36:25.281Z,8.82
2019-03-23T07:37:01.260Z,8.76
2019-03-23T07:37:37.222Z,8.64
2019-03-23T07:38:13.204Z,8.77
2019-03-23T07:38:49.279Z,8.77
2019-03-23T07:39:29.121Z,8.71
2019-03-23T07:40:03.063Z,8.71
2019-03-23T07:40:39.130Z,8.71
2019-03-23T07:41:15.095Z,8.68
2019-03-23T07:41:51.122Z,8.68
2019-03-23T07:42:27.137Z,8.66
2019-03-23T07:43:03.457Z,8.63
2019-03-23T07:43:39.395Z,8.58
2019-03-23T07:44:15.362Z,8.64
2019-03-23T07:44:51.373Z,8.64
2019-03-23T07:45:28.648Z,8.67
2019-03-23T07:46:05.105Z,8.67
2019-03-23T07:46:41.082Z,8.73
2019-03-23T07:47:17.063Z,8.79
2019-03-23T07:47:53.312Z,8.93
2019-03-23T07:48:29.405Z,8.95
2019-03-23T07:49:05.493Z,8.94
2019-03-23T07:49:41.839Z,9.06
2019-03-23T07:50:17.829Z,9.06
2019-03-23T07:50:53.992Z,9.00
2019-03-23T07:51:30.033Z,9.02
2019-03-23T07:52:06.024Z,9.07
2019-03-23T07:52:42.022Z,9.06
2019-03-23T07:53:18.097Z,9.19
2019-03-23T07:53:54.123Z,9.20
2019-03-23T07:54:30.487Z,9.37
2019-03-23T07:55:12.526Z,9.33
2019-03-23T07:55:48.599Z,9.32
2019-03-23T07:56:24.726Z,9.35
2019-03-23T07:57:00.945Z,9.37
2019-03-23T07:57:37.031Z,9.37
2019-03-23T07:58:13.015Z,9.34
2019-03-23T07:58:49.809Z,9.39
2019-03-23T07:59:26.025Z,9.45
2019-03-23T08:00:02.949Z,9.37
2019-03-23T08:00:40.922Z,9.50
2019-03-23T08:01:17.327Z,9.47
2019-03-23T08:01:53.542Z,9.55
2019-03-23T08:02:29.731Z,9.61